Time;durP1;ratioP1;P1;durP2;ratioP2;P2;SDS_P1;SDS_P2;PMS_P1;PMS_P2;Temp;Humidity;BMP_temperature;BMP_pressure;BME280_temperature;BME280_humidity;BME280_pressure;Samples;Min_cycle;Max_cycle;Signal;HPM_P1;HPM_P2
2022/07/29 00:01:44;;;;;;;2.63;0.90;;;12.70;64.40;;;;;;4111818;28;20054;-84
2022/07/29 00:03:45;;;;;;;3.58;1.40;;;12.70;64.50;;;;;;4111001;28;20031;-84
2022/07/29 00:05:45;;;;;;;2.75;1.13;;;12.70;64.40;;;;;;4126271;28;20038;-85
2022/07/29 00:07:46;;;;;;;2.50;1.05;;;12.70;64.30;;;;;;4110320;28;20027;-83
2022/07/29 00:09:47;;;;;;;3.30;1.00;;;12.70;64.20;;;;;;4107967;28;20034;-84
2022/07/29 00:11:48;;;;;;;2.83;1.23;;;12.70;64.00;;;;;;4129142;28;20030;-83
2022/07/29 00:13:48;;;;;;;2.08;1.20;;;12.60;63.80;;;;;;4129630;28;20034;-85
2022/07/29 00:15:49;;;;;;;1.67;1.10;;;12.60;63.60;;;;;;4110857;28;20038;-85
2022/07/29 00:17:50;;;;;;;2.75;0.88;;;12.60;63.50;;;;;;4125169;28;20426;-83
2022/07/29 00:19:51;;;;;;;2.85;0.90;;;12.60;63.40;;;;;;4118021;28;20039;-85
2022/07/29 00:21:52;;;;;;;2.67;1.13;;;12.50;63.30;;;;;;4093386;28;20134;-84
2022/07/29 00:23:53;;;;;;;3.60;1.65;;;12.50;63.00;;;;;;4126655;28;20038;-86
2022/07/29 00:25:53;;;;;;;1.90;1.30;;;12.50;63.60;;;;;;4103569;28;20027;-85
2022/07/29 00:27:54;;;;;;;4.90;1.55;;;12.50;63.70;;;;;;4123686;28;20038;-85
2022/07/29 00:29:55;;;;;;;4.97;1.15;;;12.50;63.70;;;;;;4122933;28;20086;-84
2022/07/29 00:31:55;;;;;;;6.78;1.70;;;12.40;63.80;;;;;;4127085;28;20040;-84
2022/07/29 00:33:56;;;;;;;10.57;2.17;;;12.40;64.00;;;;;;4108815;28;20023;-85
2022/07/29 00:35:57;;;;;;;2.70;1.58;;;12.40;64.30;;;;;;4109213;28;20030;-85
2022/07/29 00:37:58;;;;;;;4.63;1.90;;;12.40;64.40;;;;;;4107827;28;20038;-85
2022/07/29 00:39:58;;;;;;;5.25;2.13;;;12.40;64.50;;;;;;4125473;28;20105;-85
2022/07/29 00:42:02;;;;;;;5.00;2.13;;;12.30;64.60;;;;;;4107255;28;20133;-85
2022/07/29 00:44:23;;;;;;;5.47;1.88;;;12.30;64.70;;;;;;4125863;28;20383;-84
2022/07/29 00:46:44;;;;;;;2.67;1.45;;;12.30;64.80;;;;;;4111547;28;20046;-85
2022/07/29 00:49:04;;;;;;;4.80;2.30;;;12.30;64.90;;;;;;4127210;28;20514;-85
2022/07/29 00:51:07;;;;;;;9.07;1.88;;;12.40;65.10;;;;;;4123435;28;20034;-85
2022/07/29 00:53:08;;;;;;;7.65;1.88;;;12.30;65.20;;;;;;4125390;28;20376;-85
2022/07/29 00:55:11;;;;;;;5.90;2.03;;;12.30;65.30;;;;;;4124964;28;20642;-84
2022/07/29 00:57:12;;;;;;;3.22;2.00;;;12.30;65.60;;;;;;4110694;28;20035;-84
2022/07/29 00:59:13;;;;;;;6.20;1.70;;;12.30;65.70;;;;;;4108734;28;20249;-85
2022/07/29 01:01:14;;;;;;;5.72;1.80;;;12.30;65.70;;;;;;4110626;28;20035;-84
2022/07/29 01:03:14;;;;;;;3.55;1.83;;;12.20;65.80;;;;;;4126708;28;20038;-85
2022/07/29 01:05:18;;;;;;;3.88;1.70;;;12.30;65.80;;;;;;4125903;28;20030;-85
2022/07/29 01:07:19;;;;;;;5.70;1.70;;;12.30;65.80;;;;;;4109619;28;20546;-85
2022/07/29 01:09:20;;;;;;;6.18;1.70;;;12.20;65.60;;;;;;4123636;28;20034;-84
2022/07/29 01:11:21;;;;;;;4.65;2.03;;;12.20;65.50;;;;;;4126984;28;20549;-84
2022/07/29 01:13:22;;;;;;;4.85;1.60;;;12.20;65.30;;;;;;4126718;28;20034;-84
2022/07/29 01:15:23;;;;;;;7.00;1.55;;;12.20;66.00;;;;;;4122342;28;20022;-85
2022/07/29 01:17:25;;;;;;;8.55;1.45;;;12.20;65.30;;;;;;4126291;28;20502;-84
2022/07/29 01:19:50;;;;;;;2.43;1.50;;;12.20;65.30;;;;;;4125219;28;22281;-85
2022/07/29 01:21:55;;;;;;;2.97;1.48;;;12.10;65.30;;;;;;4108796;28;20286;-85
2022/07/29 01:24:01;;;;;;;4.15;1.25;;;12.10;64.90;;;;;;4121473;28;20053;-85
2022/07/29 01:26:25;;;;;;;4.97;2.08;;;12.10;64.90;;;;;;4125010;28;20510;-86
2022/07/29 01:28:44;;;;;;;5.07;1.85;;;12.10;64.90;;;;;;4109909;28;20085;-84
2022/07/29 01:30:49;;;;;;;3.70;1.58;;;12.00;64.80;;;;;;4121763;28;20029;-85
2022/07/29 01:32:55;;;;;;;4.40;1.23;;;12.00;64.50;;;;;;4131022;28;20447;-82
2022/07/29 01:35:08;;;;;;;3.22;1.48;;;12.00;64.40;;;;;;4114103;28;20038;-85
2022/07/29 01:37:39;;;;;;;2.50;1.40;;;12.00;64.60;;;;;;4112107;28;20030;-84
2022/07/29 01:39:42;;;;;;;3.00;1.42;;;11.90;64.60;;;;;;4109171;28;20043;-82
2022/07/29 01:42:08;;;;;;;4.13;1.25;;;11.90;65.20;;;;;;4128993;28;20470;-84
2022/07/29 01:44:18;;;;;;;4.50;1.35;;;11.90;64.80;;;;;;4108647;28;20037;-82
2022/07/29 01:46:30;;;;;;;2.10;1.15;;;11.90;64.60;;;;;;4109978;28;20026;-84
2022/07/29 01:48:44;;;;;;;4.50;1.27;;;11.80;64.70;;;;;;4111877;28;20058;-84
2022/07/29 01:50:53;;;;;;;4.95;1.83;;;11.80;64.70;;;;;;4110350;28;20441;-84
2022/07/29 01:52:59;;;;;;;5.05;1.35;;;11.80;64.80;;;;;;4127676;28;20112;-84
2022/07/29 01:55:09;;;;;;;2.40;1.30;;;11.80;64.90;;;;;;4095415;28;20029;-85
2022/07/29 01:57:13;;;;;;;5.50;1.65;;;11.70;64.90;;;;;;4128026;28;20018;-84
2022/07/29 01:59:17;;;;;;;4.63;1.45;;;11.70;64.90;;;;;;4110992;28;20122;-83
2022/07/29 02:01:19;;;;;;;6.72;1.77;;;11.70;65.00;;;;;;4095249;28;21057;-84
2022/07/29 02:03:22;;;;;;;5.88;1.80;;;11.70;65.00;;;;;;4109566;28;20039;-83
2022/07/29 02:05:27;;;;;;;5.03;1.60;;;11.70;65.10;;;;;;4125777;28;20151;-83
2022/07/29 02:07:31;;;;;;;2.55;1.20;;;11.60;65.10;;;;;;4122649;28;20492;-83
2022/07/29 02:09:35;;;;;;;6.32;1.70;;;11.60;65.20;;;;;;4123864;28;20401;-84
2022/07/29 02:11:37;;;;;;;3.13;1.48;;;11.60;65.20;;;;;;4111293;28;21212;-83
2022/07/29 02:13:40;;;;;;;2.53;1.30;;;11.60;65.20;;;;;;4122833;28;20797;-84
2022/07/29 02:15:43;;;;;;;2.17;1.20;;;11.60;65.10;;;;;;4127172;28;20018;-84
2022/07/29 02:17:51;;;;;;;2.50;1.60;;;11.50;65.00;;;;;;4128307;28;20073;-85
2022/07/29 02:19:56;;;;;;;2.30;1.45;;;11.50;65.10;;;;;;4109799;28;20125;-83
2022/07/29 02:21:59;;;;;;;7.57;1.60;;;11.50;65.00;;;;;;4093374;28;20023;-84
2022/07/29 02:24:02;;;;;;;3.90;1.52;;;11.50;65.20;;;;;;4110427;28;20031;-84
2022/07/29 02:26:03;;;;;;;3.08;1.90;;;11.50;65.30;;;;;;4109244;28;20430;-85
2022/07/29 02:28:06;;;;;;;3.08;1.30;;;11.40;65.10;;;;;;4127933;28;20026;-85
2022/07/29 02:30:08;;;;;;;8.32;1.30;;;11.40;65.20;;;;;;4127159;28;20019;-83
2022/07/29 02:32:13;;;;;;;4.70;1.30;;;11.40;65.20;;;;;;4093482;28;20027;-83
2022/07/29 02:34:16;;;;;;;4.45;1.38;;;11.30;65.20;;;;;;4124148;28;20097;-84
2022/07/29 02:36:18;;;;;;;;;;;11.30;65.10;;;;;;4092662;28;20053;-83
2022/07/29 02:40:43;;;;;;;3.15;1.50;;;11.30;64.90;;;;;;4126814;28;20359;-83
2022/07/29 02:42:46;;;;;;;4.15;1.50;;;11.30;64.90;;;;;;4123837;28;20039;-84
2022/07/29 02:44:46;;;;;;;2.22;1.42;;;11.20;64.90;;;;;;4122092;28;20373;-84
2022/07/29 02:47:13;;;;;;;3.67;1.30;;;11.20;65.00;;;;;;4124982;28;20030;-83
2022/07/29 02:49:34;;;;;;;2.15;1.17;;;11.10;65.20;;;;;;4123952;28;20109;-84
2022/07/29 02:51:57;;;;;;;4.43;1.30;;;11.10;65.10;;;;;;4111047;28;20022;-83
2022/07/29 02:54:04;;;;;;;2.85;1.20;;;11.10;65.10;;;;;;4112521;28;20479;-85
2022/07/29 02:56:11;;;;;;;5.88;1.35;;;11.00;65.00;;;;;;4122746;28;20536;-84
2022/07/29 02:58:28;;;;;;;4.57;1.38;;;11.00;65.00;;;;;;4109442;28;20027;-83
2022/07/29 03:00:33;;;;;;;3.70;1.30;;;11.00;65.20;;;;;;4125375;28;20034;-85
2022/07/29 03:02:43;;;;;;;3.40;1.30;;;11.00;65.00;;;;;;4095430;28;20023;-84
2022/07/29 03:04:46;;;;;;;2.08;1.40;;;10.90;65.10;;;;;;4108850;28;20105;-83
2022/07/29 03:06:48;;;;;;;3.35;1.25;;;10.90;65.10;;;;;;4093353;28;20027;-84
2022/07/29 03:08:50;;;;;;;5.72;1.50;;;10.80;65.10;;;;;;4121768;28;20026;-84
2022/07/29 03:10:52;;;;;;;2.30;1.30;;;10.80;65.50;;;;;;4111833;28;20170;-83
2022/07/29 03:12:55;;;;;;;1.92;1.00;;;10.80;65.80;;;;;;4106679;28;20057;-81
2022/07/29 03:14:56;;;;;;;3.47;1.38;;;10.80;65.90;;;;;;4125823;28;20156;-83
2022/07/29 03:16:58;;;;;;;2.83;1.73;;;10.80;65.90;;;;;;4108693;28;20019;-84
2022/07/29 03:19:00;;;;;;;2.20;1.52;;;10.80;66.00;;;;;;4104403;28;20051;-83
2022/07/29 03:21:02;;;;;;;5.43;1.63;;;10.80;66.10;;;;;;4135595;28;20026;-85
2022/07/29 03:23:02;;;;;;;3.15;1.33;;;10.70;66.00;;;;;;4130940;28;20049;-84
2022/07/29 03:25:14;;;;;;;2.25;1.42;;;10.70;66.00;;;;;;4112561;28;20023;-85
2022/07/29 03:27:15;;;;;;;6.00;1.50;;;10.70;66.30;;;;;;4110631;28;20410;-85
2022/07/29 03:29:15;;;;;;;3.55;1.45;;;10.70;66.20;;;;;;4112419;28;20023;-86
2022/07/29 03:31:16;;;;;;;4.05;1.40;;;10.70;66.20;;;;;;4111074;28;20035;-85
2022/07/29 03:33:17;;;;;;;3.95;1.85;;;10.70;66.30;;;;;;4128332;28;20022;-86
2022/07/29 03:35:19;;;;;;;9.43;1.58;;;10.70;66.40;;;;;;4127789;28;20242;-84
2022/07/29 03:37:22;;;;;;;3.25;1.42;;;10.70;66.30;;;;;;4130727;28;20956;-83
2022/07/29 03:39:25;;;;;;;2.22;1.17;;;10.70;66.40;;;;;;4128774;28;20011;-84
2022/07/29 03:41:26;;;;;;;3.50;1.67;;;10.70;66.40;;;;;;4123526;28;20041;-84
2022/07/29 03:43:31;;;;;;;3.35;1.50;;;10.70;66.50;;;;;;4110085;28;20030;-85
2022/07/29 03:45:54;;;;;;;3.88;1.33;;;10.70;66.60;;;;;;4124834;28;20035;-85
2022/07/29 03:48:19;;;;;;;5.17;1.43;;;10.60;66.60;;;;;;4124371;28;20095;-85
2022/07/29 03:50:21;;;;;;;5.82;1.42;;;10.70;66.70;;;;;;4095934;28;20293;-83
2022/07/29 03:52:42;;;;;;;3.88;1.50;;;10.70;66.90;;;;;;4124740;28;20042;-85
2022/07/29 03:55:04;;;;;;;6.20;2.38;;;10.70;67.10;;;;;;4112878;28;20031;-86
2022/07/29 03:57:27;;;;;;;4.63;1.35;;;10.70;67.20;;;;;;4128359;28;20204;-85
2022/07/29 03:59:48;;;;;;;2.38;1.48;;;10.70;67.30;;;;;;4113507;28;20049;-84
2022/07/29 04:02:11;;;;;;;3.13;1.30;;;10.70;67.30;;;;;;4125006;28;20081;-84
2022/07/29 04:04:34;;;;;;;4.03;1.75;;;10.70;67.50;;;;;;4126338;28;20061;-85
2022/07/29 04:06:54;;;;;;;4.28;1.63;;;10.80;67.70;;;;;;4123428;28;20034;-85
2022/07/29 04:09:15;;;;;;;2.65;1.65;;;10.80;68.10;;;;;;4125645;28;20026;-84
2022/07/29 04:11:37;;;;;;;4.03;1.80;;;10.80;68.40;;;;;;4125956;28;20034;-83
2022/07/29 04:13:58;;;;;;;2.58;1.55;;;10.90;69.10;;;;;;4111442;28;20123;-85
2022/07/29 04:16:19;;;;;;;6.55;1.75;;;11.00;70.60;;;;;;4112393;28;20058;-85
2022/07/29 04:18:39;;;;;;;4.97;1.77;;;11.00;70.40;;;;;;4128520;28;20037;-84
2022/07/29 04:21:00;;;;;;;6.57;2.03;;;11.10;71.00;;;;;;4112932;28;20038;-85
2022/07/29 04:23:21;;;;;;;6.35;1.85;;;11.20;71.50;;;;;;4122935;28;20084;-85
2022/07/29 04:25:42;;;;;;;5.72;1.92;;;11.30;71.90;;;;;;4125674;28;20027;-84
2022/07/29 04:27:59;;;;;;;5.88;2.10;;;11.40;72.30;;;;;;4110773;28;20046;-84
2022/07/29 04:30:00;;;;;;;3.42;1.90;;;11.50;72.70;;;;;;4122903;28;20018;-85
2022/07/29 04:32:02;;;;;;;2.75;1.45;;;11.60;72.90;;;;;;4127305;28;20025;-85
2022/07/29 04:34:03;;;;;;;3.90;1.75;;;11.70;73.10;;;;;;4108600;28;20110;-84
2022/07/29 04:36:04;;;;;;;7.15;2.08;;;11.80;73.10;;;;;;4125491;28;20030;-84
2022/07/29 04:38:05;;;;;;;4.72;2.10;;;11.90;73.40;;;;;;4111502;28;20039;-84
2022/07/29 04:40:06;;;;;;;3.33;2.08;;;12.00;73.90;;;;;;4111319;28;20031;-84
2022/07/29 04:42:07;;;;;;;4.15;1.90;;;12.10;74.00;;;;;;4128873;28;20050;-84
2022/07/29 04:44:08;;;;;;;7.82;1.90;;;12.20;74.60;;;;;;4124177;28;20741;-85
2022/07/29 04:46:09;;;;;;;4.68;2.13;;;12.30;75.10;;;;;;4124939;28;20149;-86
2022/07/29 04:48:10;;;;;;;6.20;1.95;;;12.40;75.60;;;;;;4127660;28;20042;-84
2022/07/29 04:50:11;;;;;;;5.35;2.58;;;12.60;75.60;;;;;;4109955;28;20035;-86
2022/07/29 04:52:11;;;;;;;5.55;1.80;;;12.70;76.10;;;;;;4128405;28;20406;-85
2022/07/29 04:54:12;;;;;;;5.05;2.20;;;12.80;75.30;;;;;;4121648;28;20038;-85
2022/07/29 04:56:13;;;;;;;2.83;1.80;;;12.90;75.60;;;;;;4105984;28;20164;-85
2022/07/29 04:58:14;;;;;;;4.25;2.20;;;13.00;75.50;;;;;;4126012;28;20080;-83
2022/07/29 05:00:14;;;;;;;3.95;1.83;;;13.10;75.60;;;;;;4105210;28;20047;-83
2022/07/29 05:02:15;;;;;;;5.82;1.80;;;13.30;76.00;;;;;;4104541;28;20543;-84
2022/07/29 05:04:16;;;;;;;4.25;1.90;;;13.30;75.60;;;;;;4123622;28;20069;-86
2022/07/29 05:06:17;;;;;;;4.80;1.67;;;13.40;75.60;;;;;;4109200;28;20033;-84
2022/07/29 05:08:27;;;;;;;6.63;2.00;;;13.50;75.30;;;;;;4127365;28;20061;-84
2022/07/29 05:10:48;;;;;;;5.13;1.95;;;13.60;75.70;;;;;;4131126;28;20042;-83
2022/07/29 05:13:08;;;;;;;7.35;1.90;;;13.70;75.80;;;;;;4113096;28;20039;-84
2022/07/29 05:15:29;;;;;;;5.53;2.03;;;13.80;75.60;;;;;;4124411;28;20085;-83
2022/07/29 05:17:50;;;;;;;5.78;1.90;;;13.90;75.80;;;;;;4114524;28;20106;-84
2022/07/29 05:20:10;;;;;;;3.88;1.70;;;13.90;75.60;;;;;;4128876;28;20046;-83
2022/07/29 05:22:31;;;;;;;3.45;1.58;;;14.00;75.90;;;;;;4127104;28;20076;-82
2022/07/29 05:24:52;;;;;;;3.42;1.92;;;14.20;75.70;;;;;;4122506;28;20125;-84
2022/07/29 05:27:13;;;;;;;5.82;1.60;;;14.20;75.50;;;;;;4125826;28;20073;-84
2022/07/29 05:29:33;;;;;;;4.55;1.88;;;14.20;75.60;;;;;;4113784;28;20117;-84
2022/07/29 05:31:54;;;;;;;4.97;2.10;;;14.30;75.50;;;;;;4125554;28;20057;-83
2022/07/29 05:34:15;;;;;;;5.43;1.88;;;14.40;75.90;;;;;;4127021;28;20026;-84
2022/07/29 05:36:35;;;;;;;6.95;1.42;;;14.40;75.70;;;;;;4115121;28;20026;-84
2022/07/29 05:38:56;;;;;;;3.70;1.63;;;14.50;76.00;;;;;;4126557;28;20049;-83
2022/07/29 05:41:16;;;;;;;5.43;1.83;;;14.60;75.60;;;;;;4127980;28;20177;-82
2022/07/29 05:43:37;;;;;;;8.00;1.85;;;14.60;75.50;;;;;;4125659;28;20062;-85
2022/07/29 05:45:58;;;;;;;5.03;1.80;;;14.60;75.50;;;;;;4127016;28;20034;-85
2022/07/29 05:48:19;;;;;;;3.90;1.35;;;14.70;75.50;;;;;;4115193;28;20038;-84
2022/07/29 05:50:40;;;;;;;6.35;1.45;;;14.80;75.40;;;;;;4128059;28;20039;-85
2022/07/29 05:53:00;;;;;;;10.43;1.73;;;14.80;75.40;;;;;;4127280;28;20088;-84
2022/07/29 05:55:21;;;;;;;3.40;1.50;;;14.90;75.80;;;;;;4128547;28;20044;-83
2022/07/29 05:57:43;;;;;;;2.83;1.20;;;14.90;75.70;;;;;;4128043;28;20102;-85
2022/07/29 05:59:44;;;;;;;6.78;1.30;;;14.90;75.50;;;;;;4109749;28;20105;-86
2022/07/29 06:01:44;;;;;;;3.95;1.60;;;15.00;75.30;;;;;;4125378;28;20035;-86
2022/07/29 06:03:45;;;;;;;3.05;1.48;;;15.00;75.20;;;;;;4113381;28;20590;-83
2022/07/29 06:05:46;;;;;;;4.63;1.38;;;15.10;75.00;;;;;;4127289;28;20037;-86
2022/07/29 06:07:46;;;;;;;4.65;1.50;;;15.20;75.20;;;;;;4126312;28;20034;-83
2022/07/29 06:09:47;;;;;;;4.88;1.40;;;15.20;75.20;;;;;;4112480;28;20027;-85
2022/07/29 06:11:48;;;;;;;4.10;1.15;;;15.30;74.90;;;;;;4115056;28;20023;-84
2022/07/29 06:13:48;;;;;;;2.63;1.20;;;15.30;74.90;;;;;;4127373;28;20573;-84
2022/07/29 06:15:49;;;;;;;3.90;1.30;;;15.40;74.40;;;;;;4112292;28;20484;-84
2022/07/29 06:17:50;;;;;;;8.60;1.10;;;15.40;74.00;;;;;;4108609;28;20041;-85
2022/07/29 06:19:50;;;;;;;5.35;1.35;;;15.50;73.70;;;;;;4123813;28;20443;-84
2022/07/29 06:21:51;;;;;;;3.25;0.95;;;15.60;73.30;;;;;;4128115;28;20038;-85
2022/07/29 06:23:52;;;;;;;3.75;1.25;;;15.70;72.90;;;;;;4104781;28;20121;-83
2022/07/29 06:25:52;;;;;;;6.80;1.65;;;15.70;72.10;;;;;;4119446;28;20490;-84
2022/07/29 06:27:53;;;;;;;2.33;0.88;;;15.70;70.20;;;;;;4119845;28;20030;-84
2022/07/29 06:29:53;;;;;;;4.72;1.30;;;15.80;69.10;;;;;;4109369;28;20502;-85
2022/07/29 06:31:54;;;;;;;2.90;1.08;;;15.80;68.60;;;;;;4091905;28;20027;-86
2022/07/29 06:33:55;;;;;;;3.42;1.00;;;15.90;67.60;;;;;;4123274;28;20563;-84
2022/07/29 06:35:56;;;;;;;4.68;1.25;;;15.90;67.50;;;;;;4104941;28;20522;-85
2022/07/29 06:37:57;;;;;;;7.90;0.93;;;16.00;67.40;;;;;;4087665;28;20078;-85
2022/07/29 06:42:17;;;;;;;4.25;1.00;;;16.10;67.70;;;;;;4125064;28;20057;-84
2022/07/29 06:44:18;;;;;;;5.57;0.98;;;16.30;67.60;;;;;;4106352;28;20042;-86
2022/07/29 06:49:16;;;;;;;5.07;1.10;;;16.50;66.50;;;;;;4126159;28;20045;-84
2022/07/29 06:51:37;;;;;;;3.20;1.10;;;16.60;64.90;;;;;;4127186;28;20094;-84
2022/07/29 06:56:41;;;;;;;3.00;0.75;;;16.80;64.10;;;;;;4119752;28;20042;-84
2022/07/29 07:02:25;;;;;;;7.03;1.08;;;17.10;63.20;;;;;;4097607;28;20388;-85
2022/07/29 07:05:12;;;;;;;6.05;1.20;;;17.20;62.70;;;;;;4098656;28;20047;-84
2022/07/29 07:07:13;;;;;;;2.30;0.70;;;17.30;60.30;;;;;;4124847;28;20077;-85
2022/07/29 07:15:52;;;;;;;2.40;0.90;;;17.50;59.70;;;;;;4070265;29;20038;-85
2022/07/29 07:18:14;;;;;;;7.22;1.20;;;17.70;59.40;;;;;;4091936;28;20030;-84
2022/07/29 07:20:35;;;;;;;3.05;1.23;;;17.60;59.50;;;;;;4108868;28;20129;-83
2022/07/29 07:23:07;;;;;;;4.28;1.00;;;17.70;59.40;;;;;;4127595;28;20034;-85
2022/07/29 07:25:31;;;;;;;2.53;1.02;;;17.70;59.70;;;;;;4109084;28;20031;-85
2022/07/29 07:27:52;;;;;;;4.22;1.13;;;17.80;60.00;;;;;;4115453;28;20105;-84
2022/07/29 07:37:27;;;;;;;3.58;1.10;;;17.90;59.60;;;;;;4124939;28;20593;-83
2022/07/29 07:39:46;;;;;;;2.65;1.30;;;18.10;60.00;;;;;;4108937;28;20736;-81
2022/07/29 07:42:07;;;;;;;4.28;1.30;;;18.20;61.10;;;;;;4123187;28;20027;-84
2022/07/29 07:52:01;;;;;;;3.90;1.35;;;18.50;60.10;;;;;;4114851;28;20097;-85
2022/07/29 08:08:51;;;;;;;3.20;1.15;;;18.70;59.10;;;;;;4122825;28;20046;-85
2022/07/29 08:14:33;;;;;;;5.13;1.25;;;18.70;58.40;;;;;;4001863;28;20601;-84
2022/07/29 08:17:18;;;;;;;2.75;0.90;;;18.70;58.90;;;;;;4122776;28;20029;-84
2022/07/29 08:19:59;;;;;;;4.93;1.50;;;18.80;58.80;;;;;;4191265;23;20051;-84
2022/07/29 08:22:41;;;;;;;4.72;1.33;;;18.70;58.90;;;;;;4125901;28;20026;-85
2022/07/29 08:28:11;;;;;;;7.85;1.60;;;18.60;59.10;;;;;;4099169;28;20034;-83
2022/07/29 08:30:13;;;;;;;3.63;1.25;;;18.60;59.40;;;;;;4105272;28;20116;-85
2022/07/29 08:32:14;;;;;;;3.78;1.30;;;18.60;59.60;;;;;;4105928;28;20037;-85
2022/07/29 08:34:15;;;;;;;5.20;1.60;;;18.60;59.90;;;;;;4124142;28;20027;-84
2022/07/29 08:36:15;;;;;;;4.75;1.20;;;18.70;59.80;;;;;;4106193;28;20034;-84
2022/07/29 08:38:16;;;;;;;6.20;1.95;;;18.60;59.60;;;;;;4113441;28;20027;-83
2022/07/29 08:40:17;;;;;;;12.10;1.95;;;18.70;59.60;;;;;;4122905;28;20041;-85
2022/07/29 08:42:18;;;;;;;13.05;1.67;;;18.60;59.10;;;;;;4093109;28;21202;-86
2022/07/29 08:44:21;;;;;;;3.10;1.27;;;18.70;58.60;;;;;;4109255;28;20171;-85
2022/07/29 08:46:22;;;;;;;3.30;1.40;;;18.70;58.10;;;;;;4110051;28;20049;-84
2022/07/29 08:48:24;;;;;;;3.83;1.80;;;18.80;58.10;;;;;;4124500;28;20133;-83
2022/07/29 08:50:25;;;;;;;7.17;1.50;;;18.70;57.90;;;;;;4111615;28;20022;-83
2022/07/29 08:52:35;;;;;;;3.95;1.58;;;18.80;57.80;;;;;;4115149;28;20074;-81
2022/07/29 08:54:37;;;;;;;5.95;1.70;;;18.80;57.80;;;;;;4127621;28;20121;-84
2022/07/29 08:56:39;;;;;;;4.30;1.48;;;18.90;57.70;;;;;;4109102;28;20069;-85
2022/07/29 08:58:41;;;;;;;9.63;1.55;;;18.90;58.20;;;;;;4106478;28;20075;-85
2022/07/29 09:01:11;;;;;;;4.00;1.40;;;18.80;57.80;;;;;;4129675;28;20034;-85
2022/07/29 09:03:18;;;;;;;5.97;1.50;;;18.80;56.60;;;;;;4123414;28;20045;-85
2022/07/29 09:05:19;;;;;;;8.32;1.80;;;18.90;57.10;;;;;;4111838;28;20026;-85
2022/07/29 09:07:23;;;;;;;6.03;1.55;;;19.00;56.70;;;;;;4121494;28;20030;-85
2022/07/29 09:09:24;;;;;;;5.13;1.92;;;19.00;56.10;;;;;;4127120;28;20042;-84
2022/07/29 09:11:28;;;;;;;7.75;1.45;;;19.00;55.60;;;;;;4121281;28;20522;-85
2022/07/29 09:13:29;;;;;;;2.85;1.40;;;19.00;55.20;;;;;;4104079;28;20038;-83
2022/07/29 09:15:29;;;;;;;5.40;1.70;;;19.10;55.00;;;;;;4124325;28;20026;-84
2022/07/29 09:17:46;;;;;;;7.07;1.50;;;19.00;55.60;;;;;;4124253;28;20057;-85
2022/07/29 09:19:47;;;;;;;5.60;1.15;;;19.00;54.80;;;;;;4126477;28;20034;-85
2022/07/29 09:21:57;;;;;;;5.05;1.52;;;19.00;55.00;;;;;;4125676;28;20042;-85
2022/07/29 09:24:08;;;;;;;6.88;1.50;;;19.00;55.10;;;;;;4125375;28;20042;-85
2022/07/29 09:26:09;;;;;;;8.18;1.42;;;18.90;55.60;;;;;;4108521;28;20043;-85
2022/07/29 09:28:12;;;;;;;8.43;1.52;;;18.90;55.50;;;;;;4110207;28;20065;-84
2022/07/29 09:30:14;;;;;;;;;;;18.90;55.00;;;;;;4112547;28;20114;-85
2022/07/29 09:32:15;;;;;;;5.25;1.30;;;18.90;54.70;;;;;;4111482;28;19930;-86
2022/07/29 09:34:22;;;;;;;15.70;1.80;;;19.00;55.00;;;;;;4112738;28;20659;-85
2022/07/29 09:36:23;;;;;;;7.30;1.55;;;19.10;55.40;;;;;;4112227;28;20054;-85
2022/07/29 09:38:24;;;;;;;6.13;1.70;;;19.10;54.90;;;;;;4129425;28;20090;-86
2022/07/29 09:40:28;;;;;;;4.15;1.60;;;19.10;54.40;;;;;;4111156;28;20031;-86
2022/07/29 09:42:32;;;;;;;6.32;1.80;;;19.10;54.90;;;;;;4122859;28;20042;-84
2022/07/29 09:44:48;;;;;;;9.63;1.73;;;19.10;55.40;;;;;;4131952;28;20065;-85
2022/07/29 09:47:06;;;;;;;8.20;1.80;;;19.10;55.60;;;;;;4098184;28;20062;-85
2022/07/29 09:49:27;;;;;;;5.65;1.55;;;19.10;54.70;;;;;;4127801;28;20030;-85
2022/07/29 09:51:28;;;;;;;5.45;1.67;;;19.10;54.50;;;;;;4095258;28;20035;-84
2022/07/29 09:53:50;;;;;;;10.00;1.83;;;19.10;55.20;;;;;;4130247;28;20031;-85
2022/07/29 09:56:10;;;;;;;9.23;1.80;;;19.10;55.50;;;;;;4112190;28;20107;-85
2022/07/29 09:58:19;;;;;;;26.25;2.67;;;19.10;55.80;;;;;;4123046;28;20053;-85
2022/07/29 10:00:42;;;;;;;5.75;1.90;;;19.20;56.40;;;;;;4128855;28;20041;-86
2022/07/29 10:03:03;;;;;;;5.63;1.35;;;19.20;55.70;;;;;;4113962;28;20053;-84
2022/07/29 10:05:22;;;;;;;6.87;1.70;;;19.30;56.40;;;;;;4110799;28;20034;-85
2022/07/29 10:07:56;;;;;;;5.82;1.63;;;19.20;56.40;;;;;;4128986;28;20400;-85
2022/07/29 10:10:31;;;;;;;6.22;1.20;;;19.30;56.10;;;;;;4127925;28;20066;-85
2022/07/29 10:13:21;;;;;;;10.77;1.80;;;19.30;55.20;;;;;;4126358;28;20038;-84
2022/07/29 10:15:44;;;;;;;10.68;1.60;;;19.30;55.60;;;;;;4123335;28;20529;-84
2022/07/29 10:18:09;;;;;;;9.30;1.70;;;19.30;55.70;;;;;;4108129;28;20039;-85
2022/07/29 10:20:30;;;;;;;9.25;1.67;;;19.40;55.10;;;;;;4132609;28;20049;-82
2022/07/29 10:23:17;;;;;;;9.05;1.65;;;19.50;55.00;;;;;;4112118;28;20121;-84
2022/07/29 10:25:53;;;;;;;5.65;1.30;;;19.60;55.50;;;;;;4116855;28;20525;-84
2022/07/29 10:28:23;;;;;;;2.72;1.02;;;19.50;55.10;;;;;;4118202;28;20034;-84
2022/07/29 10:31:27;;;;;;;3.03;1.30;;;19.50;55.50;;;;;;4128662;28;20027;-84
2022/07/29 10:34:03;;;;;;;6.70;1.60;;;19.50;56.00;;;;;;4118627;28;20027;-83
2022/07/29 10:37:20;;;;;;;9.32;1.60;;;19.40;56.30;;;;;;4117289;28;20038;-83
2022/07/29 10:40:00;;;;;;;6.15;1.45;;;19.40;55.70;;;;;;4124644;28;20038;-82
2022/07/29 10:42:30;;;;;;;11.57;1.77;;;19.50;56.40;;;;;;4125247;28;20042;-83
2022/07/29 10:45:27;;;;;;;6.70;1.70;;;19.40;55.00;;;;;;4122858;28;22129;-83
2022/07/29 10:47:29;;;;;;;9.35;1.80;;;19.50;55.10;;;;;;4123458;28;20034;-83
2022/07/29 10:49:30;;;;;;;4.18;1.30;;;19.50;54.80;;;;;;4129588;28;20620;-84
2022/07/29 10:51:49;;;;;;;4.68;1.60;;;19.50;54.70;;;;;;4095961;28;20028;-82
2022/07/29 10:57:43;;;;;;;9.80;2.38;;;19.40;55.00;;;;;;4104321;28;20054;-84
2022/07/29 11:00:14;;;;;;;3.80;1.60;;;19.50;55.60;;;;;;4111804;28;20039;-84
2022/07/29 11:02:33;;;;;;;4.20;1.30;;;19.70;55.10;;;;;;4130052;28;20430;-84
2022/07/29 11:04:46;;;;;;;8.63;1.52;;;19.70;54.40;;;;;;4133643;28;20033;-84
2022/07/29 11:07:04;;;;;;;9.10;1.20;;;19.70;54.50;;;;;;4132732;28;20038;-83
2022/07/29 11:09:19;;;;;;;10.55;1.20;;;19.70;54.00;;;;;;4105101;28;20035;-84
2022/07/29 11:11:20;;;;;;;6.15;1.30;;;19.70;54.00;;;;;;4111052;28;20031;-83
2022/07/29 11:13:52;;;;;;;7.55;1.30;;;19.70;54.00;;;;;;4110055;28;20042;-83
2022/07/29 11:16:43;;;;;;;;;;;;;;;;;;;;;
2022/07/29 11:23:19;;;;;;;6.53;1.52;;;19.80;53.60;;;;;;4084625;28;20059;-84
2022/07/29 11:25:40;;;;;;;17.27;1.70;;;19.70;53.50;;;;;;4091994;28;20042;-82
2022/07/29 11:28:14;;;;;;;7.55;1.77;;;19.70;53.20;;;;;;4090628;28;20041;-83
2022/07/29 11:30:53;;;;;;;7.28;1.58;;;19.70;53.60;;;;;;4093288;28;20039;-85
2022/07/29 11:33:33;;;;;;;7.25;1.30;;;19.70;53.90;;;;;;4090409;28;20416;-83
2022/07/29 11:36:11;;;;;;;5.63;1.33;;;19.70;54.10;;;;;;4090030;28;20035;-84
2022/07/29 11:38:32;;;;;;;3.85;1.20;;;19.80;53.80;;;;;;4093468;28;20047;-83
2022/07/29 11:41:17;;;;;;;5.15;1.50;;;19.80;53.90;;;;;;4090043;28;20039;-83
2022/07/29 11:43:49;;;;;;;5.88;1.48;;;19.90;52.40;;;;;;4091707;28;20049;-84
2022/07/29 11:46:09;;;;;;;8.60;1.90;;;19.90;51.60;;;;;;4091018;28;20044;-82
2022/07/29 11:48:30;;;;;;;28.00;1.55;;;19.90;50.00;;;;;;4088609;28;20035;-85
2022/07/29 11:50:52;;;;;;;3.83;1.20;;;20.00;50.50;;;;;;4089614;28;20051;-85
2022/07/29 11:52:52;;;;;;;8.13;1.33;;;20.10;50.10;;;;;;4083714;28;20170;-84
2022/07/29 11:54:59;;;;;;;2.38;0.90;;;20.00;50.70;;;;;;4091936;28;20027;-84
2022/07/29 11:57:00;;;;;;;4.38;1.17;;;20.10;50.60;;;;;;4091137;28;20063;-84
2022/07/29 11:59:09;;;;;;;3.70;1.15;;;20.10;50.90;;;;;;4091325;28;20193;-84
2022/07/29 12:01:14;;;;;;;7.50;1.52;;;20.20;51.20;;;;;;4087813;28;20039;-83
2022/07/29 12:03:25;;;;;;;5.90;1.00;;;20.20;49.80;;;;;;4091598;28;20035;-82
2022/07/29 12:05:39;;;;;;;4.18;1.00;;;20.30;49.90;;;;;;4092745;28;20034;-84
2022/07/29 12:07:40;;;;;;;7.00;1.60;;;20.40;49.40;;;;;;4103492;28;20085;-84
2022/07/29 12:09:51;;;;;;;3.58;1.17;;;20.30;48.80;;;;;;4088535;28;20648;-84
2022/07/29 12:11:59;;;;;;;7.75;1.08;;;20.30;48.60;;;;;;4090152;28;20030;-84
2022/07/29 12:14:00;;;;;;;5.53;1.27;;;20.40;49.10;;;;;;4089036;28;20046;-84
2022/07/29 12:16:00;;;;;;;3.60;1.20;;;20.30;49.60;;;;;;4091003;28;20118;-82
2022/07/29 12:18:11;;;;;;;4.57;1.30;;;20.40;50.00;;;;;;4090023;28;20051;-83
2022/07/29 12:20:12;;;;;;;5.05;1.17;;;20.30;49.30;;;;;;4103635;28;20031;-84
2022/07/29 12:22:28;;;;;;;3.03;1.00;;;20.30;49.60;;;;;;4085674;28;21492;-81
2022/07/29 12:24:43;;;;;;;8.82;1.95;;;20.40;49.10;;;;;;4091506;28;20027;-83
2022/07/29 12:26:55;;;;;;;1.60;0.80;;;20.40;48.50;;;;;;4090613;28;20057;-84
2022/07/29 12:28:55;;;;;;;2.08;0.77;;;20.50;48.90;;;;;;4090309;28;20039;-82